createdAt,value
2017-06-05T00:02:25.893Z,57.10
2017-06-05T00:04:56.053Z,58.60
2017-06-05T00:07:26.131Z,58.10
2017-06-05T00:09:56.140Z,59.20
2017-06-05T00:12:26.605Z,58.70
2017-06-05T00:14:56.763Z,59.30
2017-06-05T00:17:28.460Z,59.40
2017-06-05T00:19:59.047Z,59.30
2017-06-05T00:22:29.552Z,62.00
2017-06-05T00:24:59.668Z,61.80
2017-06-05T00:27:29.825Z,63.20
2017-06-05T00:29:59.951Z,64.70
2017-06-05T00:32:30.124Z,64.50
2017-06-05T00:35:00.196Z,64.80
2017-06-05T00:37:31.463Z,64.60
2017-06-05T00:40:01.577Z,64.30
2017-06-05T00:42:31.616Z,64.30
2017-06-05T00:45:01.706Z,64.20
2017-06-05T00:47:33.393Z,64.10
2017-06-05T00:50:03.601Z,64.20
2017-06-05T00:52:33.811Z,65.10
2017-06-05T00:55:04.724Z,64.90
2017-06-05T00:57:35.060Z,64.90
2017-06-05T01:00:05.164Z,67.00
2017-06-05T01:02:35.169Z,67.30
2017-06-05T01:05:08.260Z,67.00
2017-06-05T01:07:38.292Z,66.50
2017-06-05T01:10:08.422Z,66.90
2017-06-05T01:12:38.475Z,67.30
2017-06-05T01:15:08.575Z,67.80
2017-06-05T01:17:41.180Z,67.70
2017-06-05T01:20:13.812Z,68.60
2017-06-05T01:22:43.897Z,68.20
2017-06-05T01:25:13.982Z,69.00
2017-06-05T01:27:45.132Z,68.40
2017-06-05T01:30:15.259Z,69.10
2017-06-05T01:32:45.465Z,69.20
2017-06-05T01:35:15.552Z,69.60
2017-06-05T01:37:48.454Z,69.80
2017-06-05T01:40:21.585Z,69.90
2017-06-05T01:42:52.654Z,69.90
2017-06-05T01:45:28.031Z,70.60
2017-06-05T01:47:59.400Z,70.80
2017-06-05T01:50:30.597Z,70.80
2017-06-05T01:53:01.643Z,70.90
2017-06-05T01:55:31.689Z,71.20
2017-06-05T01:58:02.695Z,71.30
2017-06-05T02:00:32.699Z,71.70
2017-06-05T02:03:02.699Z,72.40
2017-06-05T02:05:32.883Z,72.40
2017-06-05T02:08:03.437Z,72.40
2017-06-05T02:10:35.363Z,72.40
2017-06-05T02:13:05.828Z,72.30
2017-06-05T02:15:35.861Z,72.40
2017-06-05T02:18:06.076Z,72.30
2017-06-05T02:20:36.641Z,72.30
2017-06-05T02:23:06.888Z,72.70
2017-06-05T02:25:36.876Z,72.90
2017-06-05T02:28:07.836Z,72.90
2017-06-05T02:30:38.208Z,73.20
2017-06-05T02:33:09.024Z,72.70
2017-06-05T02:35:39.441Z,72.50
2017-06-05T02:38:10.230Z,72.30
2017-06-05T02:40:40.244Z,72.20
2017-06-05T02:43:10.316Z,72.20
2017-06-05T02:45:40.824Z,72.20
2017-06-05T02:48:11.030Z,71.90
2017-06-05T02:50:41.969Z,71.00
2017-06-05T02:53:13.725Z,69.90
2017-06-05T02:55:45.172Z,70.60
2017-06-05T02:58:15.592Z,70.60
2017-06-05T03:00:45.625Z,70.90
2017-06-05T03:03:15.725Z,70.90
2017-06-05T03:05:46.280Z,70.60
2017-06-05T03:08:16.365Z,70.50
2017-06-05T03:10:47.119Z,71.30
2017-06-05T03:13:18.167Z,71.60
2017-06-05T03:15:48.690Z,72.20
2017-06-05T03:18:20.668Z,72.50
2017-06-05T03:20:50.709Z,72.50
2017-06-05T03:24:40.011Z,72.50
2017-06-05T03:27:10.184Z,72.50
2017-06-05T03:29:40.719Z,70.80
2017-06-05T03:32:10.938Z,70.30
2017-06-05T03:34:41.036Z,70.20
2017-06-05T03:37:11.069Z,70.50
2017-06-05T03:39:41.661Z,70.40
2017-06-05T03:42:11.736Z,70.70
2017-06-05T03:46:01.452Z,70.70
2017-06-05T03:48:32.373Z,71.30
2017-06-05T03:51:02.460Z,71.90
2017-06-05T03:53:33.072Z,71.50
2017-06-05T03:56:03.146Z,71.50
2017-06-05T03:58:33.224Z,71.20
2017-06-05T04:01:03.324Z,71.30
2017-06-05T04:03:33.417Z,71.90
2017-06-05T04:06:03.499Z,72.20
2017-06-05T04:08:33.981Z,72.20
2017-06-05T04:11:04.064Z,72.40
2017-06-05T04:13:34.659Z,72.40
2017-06-05T04:16:04.778Z,70.90
2017-06-05T04:18:35.699Z,71.00
2017-06-05T04:21:06.045Z,71.00
2017-06-05T04:23:37.576Z,70.70
2017-06-05T04:26:07.735Z,70.10
2017-06-05T04:28:37.721Z,69.00
2017-06-05T04:31:08.062Z,68.10
2017-06-05T04:33:38.126Z,68.10
2017-06-05T04:36:08.437Z,68.00
2017-06-05T04:38:40.002Z,67.40
2017-06-05T04:41:10.236Z,66.60
2017-06-05T04:43:40.432Z,66.70
2017-06-05T04:46:11.143Z,65.40
2017-06-05T04:48:41.536Z,64.90
2017-06-05T04:51:13.435Z,63.80
2017-06-05T04:53:43.900Z,63.90
2017-06-05T04:56:14.048Z,64.00
2017-06-05T04:58:44.345Z,64.20
2017-06-05T05:01:14.588Z,63.90
2017-06-05T05:03:45.021Z,63.90
2017-06-05T05:06:15.295Z,64.00
2017-06-05T05:08:45.459Z,64.00
2017-06-05T05:11:16.540Z,63.00
2017-06-05T05:13:47.553Z,61.40
2017-06-05T05:16:17.987Z,61.10
2017-06-05T05:18:49.308Z,60.20
2017-06-05T05:21:20.737Z,59.70
2017-06-05T05:23:51.368Z,59.90
2017-06-05T05:26:21.528Z,58.10
2017-06-05T05:28:51.671Z,57.00
2017-06-05T05:31:22.142Z,58.30
2017-06-05T05:33:52.295Z,57.80
2017-06-05T05:36:22.397Z,56.00
2017-06-05T05:38:52.925Z,56.10
2017-06-05T05:41:23.629Z,55.50
2017-06-05T05:43:53.763Z,54.40
2017-06-05T05:46:24.286Z,54.70
2017-06-05T05:48:54.356Z,55.00
2017-06-05T05:51:24.451Z,54.00
2017-06-05T05:53:54.973Z,54.00
2017-06-05T05:56:25.107Z,53.10
2017-06-05T05:58:55.326Z,53.00
2017-06-05T06:01:25.870Z,51.10
2017-06-05T06:03:56.009Z,51.20
2017-06-05T06:06:26.103Z,51.50
2017-06-05T06:08:58.803Z,49.20
2017-06-05T06:11:28.974Z,49.10
2017-06-05T06:14:00.405Z,50.60
2017-06-05T06:16:31.159Z,49.30
2017-06-05T06:19:02.749Z,49.60
2017-06-05T06:21:32.914Z,50.50
2017-06-05T06:24:03.225Z,50.70
2017-06-05T06:26:34.164Z,50.10
2017-06-05T06:29:04.734Z,49.40
2017-06-05T06:31:34.782Z,49.90
2017-06-05T06:34:05.307Z,48.70
2017-06-05T06:36:35.521Z,48.60
2017-06-05T06:39:06.621Z,49.20
2017-06-05T06:41:39.014Z,48.80
2017-06-05T06:44:11.145Z,47.60
2017-06-05T06:46:41.567Z,47.90
2017-06-05T06:49:13.025Z,47.20
2017-06-05T06:51:43.738Z,47.90
2017-06-05T06:54:13.800Z,47.10
2017-06-05T06:56:44.071Z,46.50
2017-06-05T06:59:14.331Z,44.70
2017-06-05T07:01:44.400Z,44.90
2017-06-05T07:04:14.459Z,44.50
2017-06-05T07:06:45.117Z,43.80
2017-06-05T07:09:17.342Z,42.70
2017-06-05T07:11:47.952Z,41.50
2017-06-05T07:14:23.176Z,40.90
2017-06-05T07:16:53.540Z,40.90
2017-06-05T07:19:24.032Z,42.00
2017-06-05T07:21:55.797Z,39.90
2017-06-05T07:24:26.506Z,40.20
2017-06-05T07:26:57.241Z,39.40
2017-06-05T07:29:28.722Z,39.10
2017-06-05T07:31:59.945Z,39.10
2017-06-05T07:34:30.131Z,39.40
2017-06-05T07:37:01.127Z,39.10
2017-06-05T07:39:31.937Z,36.50
2017-06-05T07:42:03.357Z,39.30
2017-06-05T07:44:33.652Z,39.00
2017-06-05T07:47:04.087Z,38.80
2017-06-05T07:49:38.014Z,39.60
2017-06-05T07:52:09.007Z,39.70
2017-06-05T07:54:39.503Z,40.00
2017-06-05T07:57:10.658Z,40.20
2017-06-05T07:59:41.241Z,38.30
2017-06-05T08:02:12.811Z,37.00
2017-06-05T08:04:42.957Z,37.70
2017-06-05T08:07:13.228Z,38.60
2017-06-05T08:09:43.286Z,38.40
2017-06-05T08:12:16.080Z,40.00
2017-06-05T08:14:46.309Z,39.10
2017-06-05T08:17:23.055Z,37.20
2017-06-05T08:19:53.559Z,36.70
2017-06-05T08:22:23.812Z,36.80
2017-06-05T08:24:53.957Z,37.80
2017-06-05T08:27:24.327Z,40.30
2017-06-05T08:29:55.917Z,38.00
2017-06-05T08:32:26.399Z,37.40
2017-06-05T08:34:56.686Z,38.30
2017-06-05T08:37:27.913Z,36.90
2017-06-05T08:39:58.492Z,37.60
2017-06-05T08:42:28.768Z,37.60
2017-06-05T08:44:58.814Z,38.70
2017-06-05T08:47:28.894Z,37.00
2017-06-05T08:49:59.570Z,37.10
2017-06-05T08:52:33.388Z,37.40
2017-06-05T08:55:03.821Z,37.40
2017-06-05T08:57:33.932Z,36.40
2017-06-05T09:00:04.173Z,36.20
2017-06-05T09:02:34.271Z,35.40
2017-06-05T09:05:05.837Z,36.20
2017-06-05T09:07:36.183Z,36.90
2017-06-05T09:10:06.469Z,37.50
2017-06-05T09:12:39.634Z,36.20
2017-06-05T09:15:10.636Z,37.60
2017-06-05T09:17:41.316Z,37.60
2017-06-05T09:20:13.201Z,37.50
2017-06-05T09:22:43.480Z,37.50
2017-06-05T09:25:13.960Z,36.70
2017-06-05T09:27:44.268Z,35.60
2017-06-05T09:30:14.316Z,34.40
2017-06-05T09:32:44.332Z,34.50
2017-06-05T09:35:14.366Z,32.80
2017-06-05T09:37:44.467Z,35.10
2017-06-05T09:40:14.572Z,35.10
2017-06-05T09:42:45.243Z,34.60
2017-06-05T09:45:15.307Z,34.60
2017-06-05T09:47:46.543Z,32.60
2017-06-05T09:50:16.775Z,32.70
2017-06-05T09:52:47.710Z,32.00
2017-06-05T09:55:17.924Z,32.00
2017-06-05T09:57:49.380Z,32.90
2017-06-05T10:00:20.125Z,31.80
2017-06-05T10:02:50.270Z,31.60
2017-06-05T10:05:20.410Z,30.90
2017-06-05T10:07:50.460Z,31.60
2017-06-05T10:10:20.577Z,32.10
2017-06-05T10:12:51.319Z,29.90
2017-06-05T10:15:21.856Z,29.90
2017-06-05T10:17:52.568Z,29.80
2017-06-05T10:20:22.737Z,30.30
2017-06-05T10:22:53.069Z,30.70
2017-06-05T10:25:23.358Z,31.20
2017-06-05T10:27:55.415Z,30.60
2017-06-05T10:30:26.676Z,30.50
2017-06-05T10:32:58.415Z,29.00
2017-06-05T10:35:30.248Z,27.50
2017-06-05T10:38:01.161Z,27.50
2017-06-05T10:40:31.397Z,27.20
2017-06-05T10:43:01.646Z,27.00
2017-06-05T10:45:32.957Z,26.80
2017-06-05T10:48:04.058Z,27.30
2017-06-05T10:50:34.824Z,27.50
2017-06-05T10:53:06.217Z,27.50
2017-06-05T10:55:39.240Z,26.20
2017-06-05T10:58:10.829Z,26.40
2017-06-05T11:00:41.640Z,26.50
2017-06-05T11:03:11.899Z,26.80
2017-06-05T11:05:45.011Z,27.50
2017-06-05T11:08:17.068Z,28.30
2017-06-05T11:10:47.913Z,28.30
2017-06-05T11:13:18.399Z,28.50
2017-06-05T11:15:48.537Z,27.40
2017-06-05T11:18:18.684Z,27.70
2017-06-05T11:20:49.442Z,26.30
2017-06-05T11:23:20.846Z,25.60
2017-06-05T11:25:51.321Z,26.60
2017-06-05T11:28:22.884Z,25.00
2017-06-05T11:30:53.096Z,25.30
2017-06-05T11:33:41.270Z,24.50
2017-06-05T11:36:14.612Z,25.10
2017-06-05T11:38:44.929Z,26.60
2017-06-05T11:41:15.188Z,26.10
2017-06-05T11:43:45.570Z,24.70
2017-06-05T11:46:16.104Z,24.10
2017-06-05T11:48:47.142Z,24.80
2017-06-05T11:51:18.867Z,26.30
2017-06-05T11:53:49.455Z,28.10
2017-06-05T11:56:21.034Z,26.70
2017-06-05T11:58:51.895Z,26.50
2017-06-05T12:01:28.435Z,26.70
2017-06-05T12:04:00.553Z,26.80
2017-06-05T12:06:32.042Z,25.70
2017-06-05T12:09:04.194Z,25.60
2017-06-05T12:11:34.605Z,26.90
2017-06-05T12:14:06.747Z,28.10
2017-06-05T12:16:36.986Z,28.80
2017-06-05T12:19:24.558Z,28.10
2017-06-05T12:22:20.368Z,27.90
2017-06-05T12:24:56.367Z,28.40
2017-06-05T12:27:28.374Z,29.30
2017-06-05T12:29:59.402Z,30.50
2017-06-05T12:32:30.222Z,29.80
2017-06-05T12:35:01.737Z,30.20
2017-06-05T12:37:34.583Z,27.00
2017-06-05T12:40:04.762Z,26.50
2017-06-05T12:42:36.462Z,29.50
2017-06-05T12:45:08.412Z,30.90
2017-06-05T12:47:38.733Z,31.70
2017-06-05T12:50:09.545Z,29.60
2017-06-05T12:52:39.771Z,26.80
2017-06-05T12:55:10.446Z,25.20
2017-06-05T12:57:41.779Z,23.40
2017-06-05T13:00:14.050Z,23.70
2017-06-05T13:02:45.304Z,24.80
2017-06-05T13:05:15.864Z,26.30
2017-06-05T13:07:46.076Z,27.00
2017-06-05T13:10:16.925Z,28.00
2017-06-05T13:12:48.038Z,27.30
2017-06-05T13:15:20.192Z,25.50
2017-06-05T13:17:50.545Z,25.50
2017-06-05T13:20:23.068Z,25.70
2017-06-05T13:22:54.318Z,25.90
2017-06-05T13:25:25.720Z,25.60
2017-06-05T13:27:57.357Z,25.90
2017-06-05T13:30:32.366Z,24.30
2017-06-05T13:33:03.459Z,25.70
2017-06-05T13:35:35.478Z,25.90
2017-06-05T13:38:06.080Z,27.20
2017-06-05T13:40:44.158Z,28.00
2017-06-05T13:43:15.412Z,26.30
2017-06-05T13:45:47.344Z,24.90
2017-06-05T13:48:20.490Z,24.20
2017-06-05T13:50:51.078Z,21.80
2017-06-05T13:53:22.319Z,21.60
2017-06-05T13:55:54.025Z,21.60
2017-06-05T13:58:25.213Z,21.60
2017-06-05T14:00:59.272Z,21.60
2017-06-05T14:03:29.636Z,21.60
2017-06-05T14:05:59.679Z,22.50
2017-06-05T14:08:30.532Z,23.00
2017-06-05T14:11:12.869Z,21.30
2017-06-05T14:13:44.016Z,21.60
2017-06-05T14:16:16.472Z,21.80
2017-06-05T14:18:46.782Z,21.40
2017-06-05T14:22:36.784Z,20.90
2017-06-05T14:25:06.921Z,20.90
2017-06-05T14:27:37.085Z,23.00
2017-06-05T14:30:07.234Z,24.50
2017-06-05T14:32:43.719Z,22.70
2017-06-05T14:35:15.588Z,22.70
2017-06-05T14:37:45.843Z,22.90
2017-06-05T14:40:25.125Z,23.00
2017-06-05T14:42:56.254Z,24.00
2017-06-05T14:45:30.547Z,25.80
2017-06-05T14:48:05.960Z,24.10
2017-06-05T14:50:36.267Z,25.10
2017-06-05T14:53:08.253Z,25.50
2017-06-05T14:55:38.982Z,24.80
2017-06-05T14:58:10.188Z,24.10
2017-06-05T15:00:41.176Z,23.70
2017-06-05T15:03:13.098Z,24.70
2017-06-05T15:05:43.340Z,26.10
2017-06-05T15:08:13.511Z,24.90
2017-06-05T15:10:46.103Z,24.80
2017-06-05T15:13:17.236Z,24.80
2017-06-05T15:15:47.327Z,24.20
2017-06-05T15:18:17.994Z,24.00
2017-06-05T15:20:48.817Z,26.20
2017-06-05T15:23:19.470Z,27.00
2017-06-05T15:25:50.116Z,27.50
2017-06-05T15:28:20.346Z,27.40
2017-06-05T15:30:51.457Z,27.30
2017-06-05T15:33:23.945Z,26.60
2017-06-05T15:35:55.219Z,26.30
2017-06-05T15:38:25.627Z,26.30
2017-06-05T15:40:56.210Z,26.30
2017-06-05T15:43:26.428Z,26.20
2017-06-05T15:45:57.633Z,26.90
2017-06-05T15:48:28.917Z,26.70
2017-06-05T15:50:59.551Z,25.70
2017-06-05T15:53:30.698Z,25.60
2017-06-05T15:56:02.348Z,25.70
2017-06-05T15:58:32.686Z,25.10
2017-06-05T16:01:03.227Z,25.80
2017-06-05T16:03:34.752Z,26.20
2017-06-05T16:06:05.033Z,26.30
2017-06-05T16:08:35.490Z,26.30
2017-06-05T16:11:05.749Z,25.80
2017-06-05T16:13:36.099Z,25.10
2017-06-05T16:16:06.930Z,24.50
2017-06-05T16:18:37.682Z,23.40
2017-06-05T16:21:07.826Z,22.50
2017-06-05T16:23:37.936Z,23.30
2017-06-05T16:26:09.680Z,24.80
2017-06-05T16:28:41.551Z,24.00
2017-06-05T16:31:12.720Z,24.70
2017-06-05T16:33:44.299Z,24.30
2017-06-05T16:36:14.518Z,23.70
2017-06-05T16:38:45.583Z,23.90
2017-06-05T16:41:15.733Z,23.40
2017-06-05T16:43:47.028Z,24.30
2017-06-05T16:46:17.310Z,25.20
2017-06-05T16:48:49.025Z,26.20
2017-06-05T16:51:20.074Z,26.30
2017-06-05T16:53:50.645Z,26.70
2017-06-05T16:56:22.478Z,27.40
2017-06-05T16:58:53.471Z,28.10
2017-06-05T17:01:23.823Z,28.80
2017-06-05T17:03:55.727Z,29.10
2017-06-05T17:06:29.691Z,29.40
2017-06-05T17:09:01.313Z,29.40
2017-06-05T17:11:32.945Z,29.00
2017-06-05T17:14:04.226Z,28.80
2017-06-05T17:16:38.777Z,29.10
2017-06-05T17:19:11.998Z,28.80
2017-06-05T17:21:46.111Z,28.10
2017-06-05T17:24:19.316Z,27.20
2017-06-05T17:26:51.656Z,27.00
2017-06-05T17:29:24.138Z,27.30
2017-06-05T17:31:56.204Z,27.60
2017-06-05T17:34:28.004Z,28.20
2017-06-05T17:37:01.236Z,29.40
2017-06-05T17:39:34.566Z,30.00
2017-06-05T17:42:24.572Z,30.40
2017-06-05T17:44:57.705Z,31.00
2017-06-05T17:47:30.358Z,31.50
2017-06-05T17:50:03.211Z,31.70
2017-06-05T17:52:35.717Z,31.80
2017-06-05T17:55:06.694Z,32.60
2017-06-05T17:57:50.565Z,32.50
2017-06-05T18:00:21.454Z,32.50
2017-06-05T18:02:52.305Z,32.50
2017-06-05T18:05:24.761Z,32.60
2017-06-05T18:07:55.032Z,32.50
2017-06-05T18:10:25.727Z,33.20
2017-06-05T18:12:56.269Z,33.00
2017-06-05T18:15:26.421Z,32.70
2017-06-05T18:17:57.801Z,32.60
2017-06-05T18:20:28.002Z,32.70
2017-06-05T18:22:58.098Z,32.90
2017-06-05T18:25:28.518Z,33.30
2017-06-05T18:27:59.472Z,33.50
2017-06-05T18:30:30.212Z,34.90
2017-06-05T18:33:00.372Z,35.10
2017-06-05T18:35:30.519Z,35.40
2017-06-05T18:38:00.724Z,35.60
2017-06-05T18:40:31.341Z,35.60
2017-06-05T18:43:01.682Z,36.10
2017-06-05T18:45:31.870Z,36.70
2017-06-05T18:48:02.010Z,37.10
2017-06-05T18:50:32.194Z,36.70
2017-06-05T18:53:02.907Z,36.90
2017-06-05T18:55:33.842Z,37.30
2017-06-05T18:58:03.995Z,37.70
2017-06-05T19:00:34.233Z,38.20
2017-06-05T19:03:08.718Z,38.10
2017-06-05T19:05:40.215Z,38.30
2017-06-05T19:08:10.448Z,38.00
2017-06-05T19:10:41.521Z,39.20
2017-06-05T19:13:12.773Z,39.30
2017-06-05T19:15:46.114Z,39.90
2017-06-05T19:18:17.617Z,40.30
2017-06-05T19:20:48.233Z,41.00
2017-06-05T19:23:18.903Z,40.90
2017-06-05T19:25:50.105Z,41.80
2017-06-05T19:28:20.784Z,42.70
2017-06-05T19:30:51.054Z,43.10
2017-06-05T19:33:21.104Z,45.40
2017-06-05T19:35:52.144Z,47.20
2017-06-05T19:38:22.512Z,47.40
2017-06-05T19:40:57.309Z,48.50
2017-06-05T19:43:27.347Z,49.40
2017-06-05T19:45:59.325Z,49.20
2017-06-05T19:48:29.330Z,49.20
2017-06-05T19:51:01.394Z,49.60
2017-06-05T19:53:31.409Z,50.00
2017-06-05T19:56:01.493Z,50.20
2017-06-05T19:58:31.751Z,50.90
2017-06-05T20:01:02.306Z,50.90
2017-06-05T20:03:32.462Z,50.90
2017-06-05T20:06:04.024Z,51.20
2017-06-05T20:08:34.174Z,51.40
2017-06-05T20:11:04.878Z,51.70
2017-06-05T20:13:35.084Z,51.70
2017-06-05T20:16:05.350Z,51.50
2017-06-05T20:18:35.765Z,52.20
2017-06-05T20:21:08.025Z,52.30
2017-06-05T20:23:39.045Z,53.20
2017-06-05T20:26:11.571Z,52.90
2017-06-05T20:28:42.262Z,53.00
2017-06-05T20:31:13.003Z,53.00
2017-06-05T20:33:43.369Z,53.20
2017-06-05T20:36:14.760Z,53.60
2017-06-05T20:38:44.962Z,53.70
2017-06-05T20:41:16.036Z,53.90
2017-06-05T20:43:46.344Z,54.50
2017-06-05T20:46:17.629Z,54.40
2017-06-05T20:48:48.448Z,54.10
2017-06-05T20:51:19.661Z,54.50
2017-06-05T20:53:50.070Z,54.30
2017-06-05T20:56:20.536Z,54.40
2017-06-05T20:58:50.965Z,54.00
2017-06-05T21:01:21.117Z,54.20
2017-06-05T21:03:51.175Z,54.20
2017-06-05T21:06:21.210Z,55.10
2017-06-05T21:08:51.687Z,55.40
2017-06-05T21:11:21.893Z,55.00
2017-06-05T21:13:52.028Z,55.20
2017-06-05T21:16:23.279Z,55.40
2017-06-05T21:18:55.153Z,55.50
2017-06-05T21:21:25.446Z,56.70
2017-06-05T21:23:56.125Z,56.60
2017-06-05T21:26:27.298Z,56.70
2017-06-05T21:28:57.513Z,56.40
2017-06-05T21:31:27.870Z,55.60
2017-06-05T21:33:58.860Z,55.50
2017-06-05T21:36:29.906Z,55.30
2017-06-05T21:39:00.570Z,55.30
2017-06-05T21:41:31.510Z,54.60
2017-06-05T21:44:01.756Z,54.30
2017-06-05T21:46:32.008Z,54.50
2017-06-05T21:49:02.384Z,54.30
2017-06-05T21:51:33.763Z,54.00
2017-06-05T21:54:04.956Z,54.00
2017-06-05T21:56:35.353Z,54.20
2017-06-05T21:59:05.838Z,53.90
2017-06-05T22:01:36.017Z,54.10
2017-06-05T22:04:06.009Z,53.90
2017-06-05T22:06:36.053Z,53.40
2017-06-05T22:09:06.285Z,53.70
2017-06-05T22:11:36.374Z,53.30
2017-06-05T22:14:41.635Z,53.40
2017-06-05T22:17:11.801Z,53.50
2017-06-05T22:19:41.887Z,53.00
2017-06-05T22:22:12.802Z,52.70
2017-06-05T22:24:43.450Z,52.40
2017-06-05T22:27:14.322Z,52.00
2017-06-05T22:29:44.309Z,52.00
2017-06-05T22:32:15.136Z,52.40
2017-06-05T22:34:45.208Z,52.80
2017-06-05T22:37:15.505Z,52.70
2017-06-05T22:39:45.770Z,52.90
2017-06-05T22:42:15.777Z,53.00
2017-06-05T22:44:46.565Z,53.00
2017-06-05T22:47:17.108Z,53.30
2017-06-05T22:49:48.293Z,53.20
2017-06-05T22:52:18.566Z,53.40
2017-06-05T22:54:48.665Z,53.90
2017-06-05T22:57:20.585Z,54.20
2017-06-05T22:59:51.257Z,54.90
2017-06-05T23:02:21.937Z,54.10
2017-06-05T23:04:52.689Z,54.90
2017-06-05T23:07:23.576Z,54.90
2017-06-05T23:09:54.501Z,55.40
2017-06-05T23:12:25.607Z,55.60
2017-06-05T23:14:55.637Z,55.50
2017-06-05T23:17:26.049Z,55.50
2017-06-05T23:19:56.193Z,55.60
2017-06-05T23:22:26.635Z,55.80
2017-06-05T23:24:56.993Z,56.00
2017-06-05T23:27:29.150Z,56.50
2017-06-05T23:29:59.763Z,56.70
2017-06-05T23:32:31.624Z,57.50
2017-06-05T23:35:01.945Z,57.40
2017-06-05T23:37:33.752Z,57.50
2017-06-05T23:40:06.006Z,57.40
2017-06-05T23:42:37.756Z,57.30
2017-06-05T23:45:08.539Z,57.10
2017-06-05T23:47:39.205Z,57.30
2017-06-05T23:50:11.597Z,57.90
2017-06-05T23:52:42.297Z,57.80
2017-06-05T23:55:13.194Z,58.20
2017-06-05T23:57:44.509Z,58.40
